Time;durP1;ratioP1;P1;durP2;ratioP2;P2;SDS_P1;SDS_P2;PMS_P1;PMS_P2;Temp;Humidity;BMP_temperature;BMP_pressure;BME280_temperature;BME280_humidity;BME280_pressure;Samples;Min_cycle;Max_cycle;Signal;HPM_P1;HPM_P2
2023/06/10 00:00:20;;;;;;;10.70;5.60;;;16.90;99.90;;;;;;6251025;22;20090;-85
2023/06/10 00:02:46;;;;;;;11.98;5.75;;;16.80;99.90;;;;;;6224977;22;20392;-85
2023/06/10 00:05:11;;;;;;;12.05;5.57;;;16.80;99.90;;;;;;6225591;22;20062;-86
2023/06/10 00:07:37;;;;;;;12.68;5.50;;;16.70;99.90;;;;;;6225335;22;20015;-86
2023/06/10 00:10:05;;;;;;;10.63;5.68;;;16.70;99.90;;;;;;6250655;22;20003;-87
2023/06/10 00:12:34;;;;;;;10.52;5.15;;;16.60;99.90;;;;;;6224991;22;20092;-85
2023/06/10 00:15:00;;;;;;;10.88;5.63;;;16.60;99.90;;;;;;6225336;22;20011;-85
2023/06/10 00:17:28;;;;;;;13.35;5.22;;;16.60;99.90;;;;;;6225692;22;20457;-85
2023/06/10 00:19:55;;;;;;;11.63;5.65;;;16.60;99.90;;;;;;6224616;22;20038;-85
2023/06/10 00:22:22;;;;;;;12.93;5.47;;;16.60;99.90;;;;;;6224554;22;20016;-85
2023/06/10 00:24:47;;;;;;;11.07;5.45;;;16.50;99.90;;;;;;6275474;22;20018;-86
2023/06/10 00:27:13;;;;;;;13.25;6.03;;;16.50;99.90;;;;;;6302359;22;20012;-85
2023/06/10 00:29:39;;;;;;;10.73;5.53;;;16.50;99.90;;;;;;6224929;22;20008;-85
2023/06/10 00:32:05;;;;;;;10.88;5.50;;;16.50;99.90;;;;;;6250065;22;20083;-85
2023/06/10 00:34:32;;;;;;;10.60;6.00;;;16.40;99.90;;;;;;6225332;22;20018;-84
2023/06/10 00:36:57;;;;;;;11.35;4.97;;;16.40;99.90;;;;;;6276098;22;20448;-84
2023/06/10 00:39:23;;;;;;;11.95;5.28;;;16.40;99.90;;;;;;6225093;22;20015;-85
2023/06/10 00:41:49;;;;;;;12.40;5.90;;;16.40;99.90;;;;;;6275534;22;20026;-85
2023/06/10 00:44:15;;;;;;;11.32;4.85;;;16.40;99.90;;;;;;6249990;22;20354;-86
2023/06/10 00:46:41;;;;;;;8.73;5.05;;;16.30;99.90;;;;;;6224763;22;20075;-84
2023/06/10 00:49:07;;;;;;;10.13;5.80;;;16.30;99.90;;;;;;6275751;22;20008;-84
2023/06/10 00:51:34;;;;;;;10.25;5.50;;;16.30;99.90;;;;;;6270965;22;20462;-83
2023/06/10 00:54:00;;;;;;;11.45;5.22;;;16.30;99.90;;;;;;6219235;23;20012;-84
2023/06/10 00:56:28;;;;;;;10.38;4.63;;;16.20;99.90;;;;;;6248273;22;20019;-85
2023/06/10 00:58:54;;;;;;;10.43;5.45;;;16.20;99.90;;;;;;6275876;22;20011;-85
2023/06/10 01:01:19;;;;;;;11.35;5.30;;;16.20;99.90;;;;;;6249830;22;20449;-86
2023/06/10 01:03:45;;;;;;;11.45;5.25;;;16.10;99.90;;;;;;6275002;22;20012;-84
2023/06/10 01:06:38;;;;;;;9.60;5.25;;;16.10;99.90;;;;;;6248741;22;20062;-85
2023/06/10 01:09:19;;;;;;;11.00;5.90;;;16.00;99.90;;;;;;6249890;22;20023;-84
2023/06/10 01:11:51;;;;;;;9.25;5.43;;;16.00;99.90;;;;;;6249546;22;20322;-85
2023/06/10 01:14:17;;;;;;;9.27;5.25;;;16.00;99.90;;;;;;6250312;22;20376;-86
2023/06/10 01:16:45;;;;;;;11.23;5.13;;;16.00;99.90;;;;;;6224387;22;20011;-84
2023/06/10 01:19:12;;;;;;;13.27;5.78;;;16.00;99.90;;;;;;6301635;22;20015;-84
2023/06/10 01:21:38;;;;;;;11.82;5.70;;;15.90;99.90;;;;;;6224294;22;20008;-84
2023/06/10 01:24:08;;;;;;;13.38;5.63;;;15.90;99.90;;;;;;6301761;22;20016;-83
2023/06/10 01:26:34;;;;;;;10.88;5.45;;;15.80;99.90;;;;;;6249451;22;20004;-85
2023/06/10 01:29:22;;;;;;;11.43;5.18;;;15.80;99.90;;;;;;6300493;22;20015;-84
2023/06/10 01:32:05;;;;;;;10.88;5.22;;;15.80;99.90;;;;;;6281282;22;20015;-85
2023/06/10 01:34:31;;;;;;;12.27;5.72;;;15.80;99.90;;;;;;6300022;22;20082;-85
2023/06/10 01:36:58;;;;;;;9.93;5.60;;;15.70;99.90;;;;;;6274642;22;20090;-86
2023/06/10 01:39:25;;;;;;;11.57;5.53;;;15.60;99.90;;;;;;6248799;22;20014;-86
2023/06/10 01:41:52;;;;;;;12.43;6.13;;;15.70;99.90;;;;;;6249967;22;20058;-85
2023/06/10 01:44:19;;;;;;;10.48;5.22;;;15.60;99.90;;;;;;6221368;22;20126;-85
2023/06/10 01:46:45;;;;;;;9.20;5.35;;;15.60;99.90;;;;;;6247663;22;20003;-85
2023/06/10 01:49:11;;;;;;;8.93;4.75;;;15.50;99.90;;;;;;6274999;22;20342;-88
2023/06/10 01:51:36;;;;;;;10.20;5.30;;;15.40;99.90;;;;;;6248700;22;20019;-87
2023/06/10 01:54:02;;;;;;;10.02;5.45;;;15.40;99.90;;;;;;6299821;22;20519;-87
2023/06/10 01:56:27;;;;;;;10.98;5.65;;;15.40;99.90;;;;;;6274701;22;20008;-86
2023/06/10 01:58:58;;;;;;;14.70;5.78;;;15.50;99.90;;;;;;6248713;22;20450;-86
2023/06/10 02:01:27;;;;;;;12.90;5.70;;;15.40;99.90;;;;;;6274229;22;20008;-85
2023/06/10 02:03:52;;;;;;;10.50;5.18;;;15.40;99.90;;;;;;6247108;22;20415;-87
2023/06/10 02:06:18;;;;;;;12.02;5.63;;;15.40;99.90;;;;;;6274032;22;20012;-87
2023/06/10 02:08:44;;;;;;;11.63;5.18;;;15.50;99.90;;;;;;6248953;22;20384;-86
2023/06/10 02:11:09;;;;;;;10.70;5.18;;;15.50;99.90;;;;;;6275324;22;20390;-87
2023/06/10 02:13:35;;;;;;;11.07;5.25;;;15.40;99.90;;;;;;6274790;22;20011;-85
2023/06/10 02:16:01;;;;;;;13.35;5.38;;;15.30;99.90;;;;;;6275135;22;20106;-85
2023/06/10 02:18:28;;;;;;;11.55;5.47;;;15.20;99.90;;;;;;6248685;22;20469;-85
2023/06/10 02:20:54;;;;;;;12.70;5.50;;;15.20;99.90;;;;;;6222476;22;20030;-85
2023/06/10 02:23:19;;;;;;;11.75;5.15;;;15.20;99.90;;;;;;6248688;22;20464;-85
2023/06/10 02:25:47;;;;;;;9.13;5.97;;;15.10;99.90;;;;;;6273815;22;20090;-85
2023/06/10 02:28:13;;;;;;;11.07;5.28;;;15.00;99.90;;;;;;6299937;22;20442;-85
2023/06/10 02:30:40;;;;;;;10.85;5.28;;;14.90;99.90;;;;;;6272952;22;20086;-85
2023/06/10 02:33:09;;;;;;;10.60;5.15;;;14.90;99.90;;;;;;6224275;22;20070;-83
2023/06/10 02:35:36;;;;;;;10.25;5.38;;;14.90;99.90;;;;;;6222687;22;20016;-86
2023/06/10 02:38:02;;;;;;;10.05;5.03;;;14.80;99.90;;;;;;6247578;22;20094;-82
2023/06/10 02:40:28;;;;;;;9.65;4.60;;;14.80;99.90;;;;;;6222540;22;20073;-84
2023/06/10 02:42:53;;;;;;;11.82;5.68;;;14.70;99.90;;;;;;6273733;22;20050;-84
2023/06/10 02:45:19;;;;;;;9.90;5.18;;;14.70;99.90;;;;;;6299935;22;20011;-85
2023/06/10 02:47:45;;;;;;;10.10;5.07;;;14.80;99.90;;;;;;6248251;22;20438;-86
2023/06/10 02:50:10;;;;;;;11.77;5.15;;;14.80;99.90;;;;;;6274130;22;20003;-87
2023/06/10 02:52:37;;;;;;;10.25;4.95;;;14.70;99.90;;;;;;6249080;22;20016;-85
2023/06/10 02:55:02;;;;;;;11.10;5.10;;;14.80;99.90;;;;;;6223430;22;20011;-86
2023/06/10 02:57:28;;;;;;;9.80;4.65;;;14.70;99.90;;;;;;6223510;22;20011;-86
2023/06/10 02:59:54;;;;;;;12.45;5.60;;;14.80;99.90;;;;;;6273709;22;20018;-86
2023/06/10 03:02:19;;;;;;;9.55;4.78;;;14.70;99.90;;;;;;6248582;22;20046;-86
2023/06/10 03:04:45;;;;;;;9.85;4.93;;;14.80;99.90;;;;;;6272985;22;20505;-85
2023/06/10 03:07:11;;;;;;;11.57;5.85;;;14.80;99.90;;;;;;6273637;22;20008;-86
2023/06/10 03:09:36;;;;;;;10.02;5.13;;;14.70;99.90;;;;;;6274426;22;20077;-86
2023/06/10 03:12:02;;;;;;;11.25;5.35;;;14.60;99.90;;;;;;6226013;22;20051;-87
2023/06/10 03:14:28;;;;;;;12.38;5.90;;;14.70;99.90;;;;;;6225105;22;20047;-86
2023/06/10 03:16:54;;;;;;;11.05;5.05;;;14.60;99.90;;;;;;6302668;22;20253;-86
2023/06/10 03:19:21;;;;;;;12.23;5.70;;;14.60;99.90;;;;;;6301696;22;20015;-86
2023/06/10 03:21:57;;;;;;;11.00;5.28;;;14.60;99.90;;;;;;6276302;22;20027;-86
2023/06/10 03:24:23;;;;;;;12.13;5.63;;;14.60;99.90;;;;;;6275906;22;20047;-86
2023/06/10 03:26:48;;;;;;;11.57;5.68;;;14.60;99.90;;;;;;6275759;22;20019;-84
2023/06/10 03:29:14;;;;;;;10.82;5.55;;;14.50;99.90;;;;;;6251214;22;20018;-85
2023/06/10 03:31:40;;;;;;;11.48;5.55;;;14.50;99.90;;;;;;6275630;22;20007;-85
2023/06/10 03:34:05;;;;;;;10.25;5.90;;;14.50;99.90;;;;;;6275541;22;20018;-87
2023/06/10 03:36:31;;;;;;;10.57;5.82;;;14.40;99.90;;;;;;6250441;22;20016;-84
2023/06/10 03:38:56;;;;;;;13.25;6.13;;;14.40;99.90;;;;;;6250671;22;20354;-85
2023/06/10 03:41:22;;;;;;;11.27;5.38;;;14.40;99.90;;;;;;6250278;22;20061;-85
2023/06/10 03:43:48;;;;;;;12.25;5.75;;;14.50;99.90;;;;;;6225371;22;20062;-86
2023/06/10 03:46:14;;;;;;;11.52;5.60;;;14.40;99.90;;;;;;6249728;22;20377;-86
2023/06/10 03:48:40;;;;;;;12.15;5.20;;;14.40;99.90;;;;;;6276177;22;20446;-83
2023/06/10 03:51:06;;;;;;;9.93;5.53;;;14.40;99.90;;;;;;6250243;22;20008;-83
2023/06/10 03:53:32;;;;;;;10.65;4.90;;;14.40;99.90;;;;;;6271794;22;20011;-83
2023/06/10 03:55:57;;;;;;;13.23;5.75;;;14.40;99.90;;;;;;6300152;22;20098;-83
2023/06/10 03:58:23;;;;;;;11.02;5.28;;;14.40;99.90;;;;;;6250298;22;20019;-84
2023/06/10 04:00:49;;;;;;;13.70;5.43;;;14.40;99.90;;;;;;6250614;22;20142;-84
2023/06/10 04:03:15;;;;;;;11.20;5.47;;;14.40;99.90;;;;;;6275201;22;20038;-85
2023/06/10 04:05:44;;;;;;;11.52;5.05;;;14.40;99.90;;;;;;6275275;22;20525;-84
2023/06/10 04:08:09;;;;;;;12.13;5.35;;;14.40;99.90;;;;;;6250500;22;20016;-84
2023/06/10 04:10:35;;;;;;;11.00;5.38;;;14.40;99.90;;;;;;6301243;22;20003;-85
2023/06/10 04:13:01;;;;;;;12.75;5.57;;;14.50;99.90;;;;;;6225134;22;20012;-84
2023/06/10 04:15:27;;;;;;;11.75;5.88;;;14.50;99.90;;;;;;6225114;22;20019;-84
2023/06/10 04:17:52;;;;;;;12.52;5.15;;;14.40;99.90;;;;;;6275716;22;20011;-85
2023/06/10 04:20:18;;;;;;;10.65;5.43;;;14.40;99.90;;;;;;6249504;22;20087;-84
2023/06/10 04:22:44;;;;;;;11.93;5.75;;;14.30;99.90;;;;;;6274542;22;20066;-84
2023/06/10 04:25:10;;;;;;;14.25;5.90;;;14.30;99.90;;;;;;6301735;22;20008;-84
2023/06/10 04:27:35;;;;;;;9.63;5.53;;;14.30;99.90;;;;;;6275394;22;20043;-84
2023/06/10 04:30:03;;;;;;;15.43;5.97;;;14.40;99.90;;;;;;6274896;22;20012;-86
2023/06/10 04:32:29;;;;;;;12.38;5.72;;;14.40;99.90;;;;;;6249498;22;20046;-84
2023/06/10 04:34:55;;;;;;;14.05;5.88;;;14.50;99.90;;;;;;6274845;22;20016;-84
2023/06/10 04:37:20;;;;;;;12.43;5.85;;;14.60;99.90;;;;;;6249721;22;20045;-83
2023/06/10 04:39:46;;;;;;;12.90;5.63;;;14.70;99.90;;;;;;6249726;22;20024;-84
2023/06/10 04:42:11;;;;;;;13.15;5.53;;;14.60;99.90;;;;;;6250524;22;20400;-84
2023/06/10 04:44:37;;;;;;;16.23;6.63;;;14.70;99.90;;;;;;6274887;22;20066;-84
2023/06/10 04:47:03;;;;;;;11.18;6.28;;;14.70;99.90;;;;;;6224994;22;20010;-83
2023/06/10 04:49:29;;;;;;;11.20;6.13;;;14.70;99.90;;;;;;6224131;22;20007;-84
2023/06/10 04:51:55;;;;;;;12.57;5.97;;;14.60;99.90;;;;;;6275290;22;20014;-84
2023/06/10 04:54:20;;;;;;;13.20;6.32;;;14.70;99.90;;;;;;6275598;22;20346;-85
2023/06/10 04:56:46;;;;;;;13.15;6.78;;;14.80;99.90;;;;;;6275272;22;20023;-83
2023/06/10 04:59:12;;;;;;;13.63;6.90;;;14.80;99.90;;;;;;6275092;22;20011;-83
2023/06/10 05:01:37;;;;;;;13.77;6.80;;;14.70;99.90;;;;;;6273879;22;20009;-85
2023/06/10 05:04:04;;;;;;;14.68;6.97;;;14.70;99.90;;;;;;6249989;22;20012;-84
2023/06/10 05:06:29;;;;;;;15.45;6.90;;;14.80;99.90;;;;;;6274231;22;20008;-84
2023/06/10 05:08:55;;;;;;;14.60;7.07;;;14.70;99.90;;;;;;6274450;22;20342;-84
2023/06/10 05:11:21;;;;;;;11.00;5.78;;;14.90;99.90;;;;;;6249908;22;20011;-84
2023/06/10 05:13:47;;;;;;;15.07;6.30;;;14.90;99.90;;;;;;6223676;22;20018;-84
2023/06/10 05:16:14;;;;;;;16.65;7.15;;;15.00;99.90;;;;;;6301106;22;20007;-84
2023/06/10 05:18:40;;;;;;;17.55;6.47;;;15.00;99.90;;;;;;6275252;22;20062;-83
2023/06/10 05:21:06;;;;;;;16.35;6.78;;;14.90;99.90;;;;;;6298959;22;20020;-84
2023/06/10 05:23:31;;;;;;;13.32;6.75;;;15.00;99.90;;;;;;6249239;22;20012;-84
2023/06/10 05:25:58;;;;;;;12.82;7.60;;;15.00;99.90;;;;;;6274723;22;20007;-85
2023/06/10 05:28:23;;;;;;;14.55;6.80;;;15.10;99.90;;;;;;6301080;22;20018;-84
2023/06/10 05:30:49;;;;;;;13.02;6.28;;;15.10;99.90;;;;;;6248403;22;20011;-84
2023/06/10 05:33:15;;;;;;;13.93;7.07;;;15.20;99.90;;;;;;6270124;22;20014;-85
2023/06/10 05:35:41;;;;;;;15.60;6.68;;;15.30;99.90;;;;;;6273762;22;20015;-83
2023/06/10 05:38:18;;;;;;;14.65;6.32;;;15.30;99.90;;;;;;6247769;22;20109;-85
2023/06/10 05:40:44;;;;;;;12.75;6.68;;;15.40;99.90;;;;;;6248231;22;20453;-85
2023/06/10 05:43:10;;;;;;;12.88;6.40;;;15.50;99.90;;;;;;6274072;22;20091;-85
2023/06/10 05:45:36;;;;;;;13.02;5.50;;;15.60;99.90;;;;;;6300826;22;20050;-85
2023/06/10 05:48:02;;;;;;;13.77;7.00;;;15.70;99.90;;;;;;6300399;22;20007;-87
2023/06/10 05:50:28;;;;;;;13.65;6.90;;;15.70;99.90;;;;;;6298928;22;20004;-86
2023/06/10 05:52:54;;;;;;;12.60;7.07;;;15.70;99.90;;;;;;6248984;22;20070;-86
2023/06/10 05:55:20;;;;;;;12.55;6.85;;;15.80;99.90;;;;;;6300058;22;20012;-85
2023/06/10 05:57:46;;;;;;;11.45;4.72;;;15.80;99.90;;;;;;6248333;22;20099;-84
2023/06/10 06:00:12;;;;;;;12.07;6.68;;;16.00;99.90;;;;;;6274521;22;20066;-85
2023/06/10 06:02:37;;;;;;;11.57;6.10;;;16.20;99.90;;;;;;6222485;22;20522;-84
2023/06/10 06:05:03;;;;;;;14.60;6.35;;;16.30;99.90;;;;;;6248848;22;20035;-84
2023/06/10 06:07:29;;;;;;;15.50;7.15;;;16.50;99.90;;;;;;6274025;22;20442;-85
2023/06/10 06:09:55;;;;;;;13.60;6.70;;;16.60;99.90;;;;;;6271130;22;20037;-84
2023/06/10 06:12:20;;;;;;;15.13;7.20;;;16.80;99.90;;;;;;6274288;22;20084;-85
2023/06/10 06:14:46;;;;;;;13.75;7.13;;;16.90;99.90;;;;;;6248838;22;20012;-84
2023/06/10 06:17:12;;;;;;;12.65;6.75;;;16.90;99.90;;;;;;6273030;22;20061;-85
2023/06/10 06:19:38;;;;;;;13.95;7.00;;;17.10;99.90;;;;;;6299654;22;20012;-85
2023/06/10 06:22:03;;;;;;;13.13;6.60;;;17.20;99.90;;;;;;6273317;22;20031;-84
2023/06/10 06:24:29;;;;;;;11.93;6.38;;;17.30;99.90;;;;;;6223359;22;20062;-88
2023/06/10 06:26:55;;;;;;;13.80;7.50;;;17.40;99.90;;;;;;6272998;22;20015;-85
2023/06/10 06:29:20;;;;;;;11.55;7.60;;;17.30;99.90;;;;;;6249578;22;20008;-85
2023/06/10 06:31:46;;;;;;;13.40;7.03;;;17.40;99.90;;;;;;6299955;22;20011;-83
2023/06/10 06:34:11;;;;;;;14.68;6.80;;;17.50;99.90;;;;;;6299698;22;20012;-83
2023/06/10 06:36:37;;;;;;;13.93;6.80;;;17.50;99.90;;;;;;6275057;22;20054;-83
2023/06/10 06:39:02;;;;;;;14.65;7.28;;;17.60;99.90;;;;;;6248085;22;20086;-83
2023/06/10 06:41:28;;;;;;;14.35;6.88;;;17.60;99.90;;;;;;6274580;22;20015;-83
2023/06/10 06:43:55;;;;;;;12.50;6.82;;;17.70;99.90;;;;;;6274056;22;20018;-83
2023/06/10 06:46:21;;;;;;;13.25;7.20;;;17.80;99.90;;;;;;6223686;22;20004;-82
2023/06/10 06:48:47;;;;;;;13.77;6.63;;;17.90;99.90;;;;;;6273991;22;20049;-83
2023/06/10 06:51:12;;;;;;;15.88;6.93;;;18.00;99.90;;;;;;6273946;22;20090;-83
2023/06/10 06:53:44;;;;;;;13.35;6.53;;;18.00;99.90;;;;;;6248892;22;20402;-84
2023/06/10 06:56:10;;;;;;;14.65;7.15;;;18.20;99.90;;;;;;6223445;22;20043;-84
2023/06/10 06:58:35;;;;;;;12.77;6.47;;;18.30;99.90;;;;;;6223632;22;20499;-84
2023/06/10 07:01:01;;;;;;;12.10;6.45;;;18.40;99.90;;;;;;6274819;22;20016;-84
2023/06/10 07:03:26;;;;;;;11.15;6.30;;;18.40;99.90;;;;;;6273823;22;20069;-84
2023/06/10 07:05:52;;;;;;;12.25;6.60;;;18.40;99.90;;;;;;6274012;22;20019;-83
2023/06/10 07:08:18;;;;;;;10.40;6.15;;;18.30;99.90;;;;;;6248572;22;20012;-83
2023/06/10 07:10:43;;;;;;;10.85;5.72;;;18.50;99.90;;;;;;6273661;22;20012;-83
2023/06/10 07:13:09;;;;;;;15.13;6.70;;;18.60;99.90;;;;;;6248658;22;20016;-83
2023/06/10 07:15:35;;;;;;;13.48;6.22;;;18.70;99.90;;;;;;6274273;22;20016;-83
2023/06/10 07:18:00;;;;;;;12.30;7.07;;;18.80;99.90;;;;;;6274303;22;20327;-84
2023/06/10 07:20:26;;;;;;;11.52;6.15;;;18.90;99.90;;;;;;6273898;22;20019;-83
2023/06/10 07:22:51;;;;;;;11.98;6.25;;;18.90;99.90;;;;;;6274569;22;20085;-83
2023/06/10 07:25:17;;;;;;;14.27;6.75;;;19.00;99.90;;;;;;6248249;22;20004;-83
2023/06/10 07:27:43;;;;;;;11.10;6.45;;;19.10;99.90;;;;;;6274890;22;20319;-83
2023/06/10 07:30:09;;;;;;;11.43;5.90;;;19.20;99.90;;;;;;6273298;22;20019;-82
2023/06/10 07:32:34;;;;;;;11.07;5.55;;;19.30;99.90;;;;;;6250236;22;20012;-85
2023/06/10 07:35:00;;;;;;;9.48;5.40;;;19.30;99.90;;;;;;6274994;22;20346;-83
2023/06/10 07:37:25;;;;;;;13.77;6.10;;;19.40;99.90;;;;;;6274964;22;20450;-84
2023/06/10 07:39:51;;;;;;;12.60;5.68;;;19.40;99.90;;;;;;6273582;22;20012;-83
2023/06/10 07:42:17;;;;;;;13.40;6.78;;;19.50;99.90;;;;;;6299985;22;20004;-83
2023/06/10 07:44:42;;;;;;;12.25;5.97;;;19.60;99.90;;;;;;6273823;22;20012;-83
2023/06/10 07:47:08;;;;;;;12.88;6.32;;;19.60;99.90;;;;;;6274126;22;20018;-83
2023/06/10 07:49:33;;;;;;;11.68;6.15;;;19.80;99.90;;;;;;6248108;22;20015;-83
2023/06/10 07:51:59;;;;;;;13.20;6.07;;;19.90;99.90;;;;;;6274183;22;20019;-84
2023/06/10 07:54:25;;;;;;;12.95;6.63;;;19.80;99.90;;;;;;6274104;22;20022;-84
2023/06/10 07:56:52;;;;;;;9.93;6.28;;;19.70;99.90;;;;;;6249937;22;20008;-86
2023/06/10 07:59:18;;;;;;;9.98;5.70;;;19.80;99.90;;;;;;6275350;22;20012;-87
2023/06/10 08:01:43;;;;;;;10.90;6.07;;;19.80;99.90;;;;;;6225130;22;20012;-82
2023/06/10 08:04:09;;;;;;;10.10;6.20;;;19.80;99.90;;;;;;6224210;22;20090;-82
2023/06/10 08:06:36;;;;;;;14.00;6.13;;;19.90;99.90;;;;;;6297977;22;20012;-80
2023/06/10 08:09:02;;;;;;;11.07;5.72;;;19.90;99.90;;;;;;6275626;22;20042;-81
2023/06/10 08:11:29;;;;;;;11.68;6.55;;;20.10;99.90;;;;;;6276330;22;20449;-82
2023/06/10 08:13:55;;;;;;;13.65;6.22;;;20.20;99.90;;;;;;6224599;22;20022;-82
2023/06/10 08:16:20;;;;;;;13.73;6.20;;;20.20;99.90;;;;;;6275412;22;20043;-84
2023/06/10 08:18:46;;;;;;;13.23;6.50;;;20.40;99.90;;;;;;6301212;22;20528;-84
2023/06/10 08:21:11;;;;;;;10.48;5.93;;;20.50;99.90;;;;;;6249564;22;20078;-84
2023/06/10 08:23:37;;;;;;;12.05;5.50;;;20.60;99.90;;;;;;6300870;22;20018;-83
2023/06/10 08:26:02;;;;;;;11.43;5.47;;;20.80;99.90;;;;;;6248836;22;20087;-83
2023/06/10 08:28:28;;;;;;;11.77;6.43;;;21.00;99.90;;;;;;6248877;22;20004;-84
2023/06/10 08:30:54;;;;;;;10.07;6.10;;;21.00;99.90;;;;;;6275169;22;20043;-83
2023/06/10 08:33:19;;;;;;;11.82;6.18;;;21.00;99.90;;;;;;6275640;22;20016;-83
2023/06/10 08:35:45;;;;;;;10.95;5.50;;;21.30;99.90;;;;;;6249000;22;20099;-85
2023/06/10 08:38:10;;;;;;;12.35;5.47;;;21.30;99.90;;;;;;6275506;22;20346;-85
2023/06/10 08:40:37;;;;;;;10.63;5.50;;;21.50;99.90;;;;;;6300821;22;20457;-82
2023/06/10 08:43:08;;;;;;;11.85;5.93;;;21.60;99.90;;;;;;6273872;22;20051;-85
2023/06/10 08:45:36;;;;;;;10.93;5.25;;;21.50;99.90;;;;;;6249769;22;20472;-84
2023/06/10 08:48:09;;;;;;;10.52;5.40;;;21.60;99.90;;;;;;6275076;22;20441;-84
2023/06/10 08:50:38;;;;;;;13.57;5.15;;;21.70;99.90;;;;;;6224525;22;20008;-85
2023/06/10 08:53:05;;;;;;;32.03;6.25;;;21.90;99.90;;;;;;6224075;22;20047;-84
2023/06/10 08:55:44;;;;;;;12.35;5.60;;;21.80;99.90;;;;;;6224350;22;20390;-84
2023/06/10 08:58:10;;;;;;;9.27;5.18;;;22.10;99.90;;;;;;6248895;22;20007;-84
2023/06/10 09:00:36;;;;;;;9.20;4.75;;;22.10;99.90;;;;;;6224974;22;20015;-81
2023/06/10 09:03:04;;;;;;;10.95;4.93;;;22.10;99.90;;;;;;6223485;22;20018;-81
2023/06/10 09:05:32;;;;;;;10.05;4.40;;;22.20;99.90;;;;;;6223801;22;20429;-81
2023/06/10 09:08:00;;;;;;;9.43;4.80;;;22.40;99.90;;;;;;6249563;22;20011;-81
2023/06/10 09:10:26;;;;;;;10.25;5.18;;;22.50;99.90;;;;;;6224308;22;20338;-81
2023/06/10 09:12:51;;;;;;;10.50;4.93;;;22.60;99.90;;;;;;6224058;22;20073;-82
2023/06/10 09:15:17;;;;;;;10.95;4.93;;;22.70;99.90;;;;;;6274811;22;20094;-82
2023/06/10 09:17:43;;;;;;;9.02;5.55;;;22.70;99.90;;;;;;6248006;22;20043;-83
2023/06/10 09:20:09;;;;;;;9.02;4.88;;;22.90;99.90;;;;;;6275264;22;20346;-83
2023/06/10 09:22:35;;;;;;;8.52;4.03;;;22.90;99.90;;;;;;6274683;22;20011;-82
2023/06/10 09:25:05;;;;;;;10.65;4.72;;;22.90;99.90;;;;;;6299117;22;20461;-83
2023/06/10 09:27:34;;;;;;;10.40;4.68;;;23.10;99.90;;;;;;6224591;22;20120;-83
2023/06/10 09:30:00;;;;;;;9.77;5.10;;;23.00;99.90;;;;;;6299223;22;20019;-85
2023/06/10 09:32:26;;;;;;;9.35;4.38;;;23.10;99.90;;;;;;6247692;22;20016;-83
2023/06/10 09:34:52;;;;;;;9.73;4.82;;;23.00;99.90;;;;;;6249364;22;20315;-83
2023/06/10 09:37:22;;;;;;;10.07;4.53;;;23.20;99.90;;;;;;6270011;22;20019;-83
2023/06/10 09:40:08;;;;;;;7.85;4.05;;;23.30;99.90;;;;;;6248858;22;20007;-84
2023/06/10 09:42:38;;;;;;;9.00;4.10;;;23.20;99.90;;;;;;6248318;22;20923;-83
2023/06/10 09:45:05;;;;;;;10.05;4.00;;;23.30;99.90;;;;;;6224408;22;20004;-83
2023/06/10 09:47:30;;;;;;;8.40;4.15;;;23.30;99.90;;;;;;6224467;22;20008;-81
2023/06/10 09:49:56;;;;;;;9.45;4.00;;;23.40;99.90;;;;;;6224006;22;20058;-82
2023/06/10 09:52:26;;;;;;;9.82;3.78;;;23.60;99.90;;;;;;6248059;22;20004;-82
2023/06/10 09:54:53;;;;;;;8.73;3.92;;;23.70;99.90;;;;;;6220682;22;20515;-82
2023/06/10 09:57:20;;;;;;;8.15;3.85;;;23.80;99.90;;;;;;6249836;22;20008;-81
2023/06/10 09:59:46;;;;;;;8.75;3.85;;;23.80;99.90;;;;;;6221316;22;20083;-83
2023/06/10 10:02:16;;;;;;;7.97;3.80;;;23.90;99.90;;;;;;6300272;22;20050;-83
2023/06/10 10:04:42;;;;;;;7.97;4.18;;;24.00;99.90;;;;;;6222638;22;20007;-82
2023/06/10 10:07:09;;;;;;;8.00;3.50;;;24.00;99.90;;;;;;6249141;22;20012;-82
2023/06/10 10:09:39;;;;;;;6.95;3.92;;;24.20;99.90;;;;;;6224249;22;20010;-81
2023/06/10 10:12:14;;;;;;;7.88;3.97;;;24.30;95.90;;;;;;6221575;22;20012;-81
2023/06/10 10:14:45;;;;;;;9.60;3.95;;;24.30;95.20;;;;;;6249584;22;20349;-81
2023/06/10 10:17:14;;;;;;;9.00;4.30;;;24.30;98.80;;;;;;6249745;22;20016;-82
2023/06/10 10:19:57;;;;;;;7.93;3.40;;;24.20;96.20;;;;;;6224492;22;20388;-83
2023/06/10 10:22:34;;;;;;;7.55;3.50;;;24.40;95.30;;;;;;6249596;22;20102;-86
2023/06/10 10:25:03;;;;;;;9.15;4.00;;;24.40;92.00;;;;;;6247512;22;20011;-82
2023/06/10 10:28:01;;;;;;;8.95;3.58;;;24.30;95.10;;;;;;6223166;22;20453;-81
2023/06/10 10:30:30;;;;;;;8.15;3.63;;;24.50;96.00;;;;;;6197022;22;20019;-83
2023/06/10 10:33:08;;;;;;;9.95;3.97;;;24.30;90.60;;;;;;6223148;22;20019;-83
2023/06/10 10:35:34;;;;;;;9.15;3.92;;;24.40;93.80;;;;;;6249462;22;20007;-82
2023/06/10 10:38:00;;;;;;;8.82;3.50;;;24.60;95.80;;;;;;6272151;22;20018;-76
2023/06/10 10:40:29;;;;;;;5.93;3.33;;;24.60;95.50;;;;;;6248077;22;20015;-81
2023/06/10 10:42:58;;;;;;;8.85;3.75;;;24.80;91.90;;;;;;6249219;22;20019;-81
2023/06/10 10:45:23;;;;;;;8.65;3.60;;;24.70;93.10;;;;;;6249445;22;20012;-81
2023/06/10 10:47:53;;;;;;;7.40;3.65;;;24.80;93.50;;;;;;6273483;22;20008;-82
2023/06/10 10:50:20;;;;;;;7.20;3.40;;;24.90;92.10;;;;;;6223921;22;20327;-82
2023/06/10 10:52:55;;;;;;;7.78;3.60;;;24.90;91.40;;;;;;6224247;22;20433;-83
2023/06/10 10:55:25;;;;;;;8.63;3.33;;;24.90;89.70;;;;;;6249234;22;20369;-82
2023/06/10 10:57:56;;;;;;;8.65;3.63;;;24.90;91.90;;;;;;6223743;22;20018;-81
2023/06/10 11:00:30;;;;;;;10.93;3.30;;;24.90;80.30;;;;;;6224133;22;20020;-81
2023/06/10 11:03:16;;;;;;;7.93;3.60;;;25.00;90.20;;;;;;6224155;22;20016;-82
2023/06/10 11:05:49;;;;;;;8.40;3.60;;;25.10;91.30;;;;;;6222247;22;20016;-81
2023/06/10 11:08:35;;;;;;;8.52;3.45;;;25.20;91.70;;;;;;6249301;22;20047;-82
2023/06/10 11:11:16;;;;;;;9.43;3.90;;;25.30;92.10;;;;;;6300138;22;20102;-81
2023/06/10 11:14:06;;;;;;;6.22;3.38;;;25.30;92.70;;;;;;6224025;22;20011;-81
2023/06/10 11:16:43;;;;;;;8.82;3.63;;;25.40;94.00;;;;;;6249242;22;20018;-81
2023/06/10 11:19:09;;;;;;;9.27;3.63;;;25.60;93.00;;;;;;6274913;22;20008;-82
2023/06/10 11:22:01;;;;;;;7.25;3.50;;;25.40;91.50;;;;;;6222728;22;20016;-81
2023/06/10 11:24:27;;;;;;;7.53;2.88;;;25.40;92.70;;;;;;6273197;22;20012;-83
2023/06/10 11:26:53;;;;;;;7.68;3.10;;;25.50;92.60;;;;;;6249277;22;20078;-82
2023/06/10 11:29:20;;;;;;;8.20;3.50;;;25.50;90.70;;;;;;6274836;22;20446;-82
2023/06/10 11:31:49;;;;;;;8.82;3.47;;;25.40;90.30;;;;;;6225411;22;20845;-82
2023/06/10 11:34:23;;;;;;;8.20;3.50;;;25.40;91.70;;;;;;6225900;22;20012;-82
2023/06/10 11:36:49;;;;;;;8.35;3.53;;;25.40;89.80;;;;;;6225775;22;20015;-82
2023/06/10 11:39:15;;;;;;;7.35;3.20;;;25.40;91.10;;;;;;6250801;22;20015;-82
2023/06/10 11:41:40;;;;;;;9.15;3.22;;;25.40;91.40;;;;;;6274972;22;20030;-85
2023/06/10 11:44:11;;;;;;;8.07;3.20;;;25.40;90.50;;;;;;6274929;22;20385;-83
2023/06/10 11:46:37;;;;;;;8.13;3.67;;;25.50;90.20;;;;;;6224002;22;20008;-83
2023/06/10 11:49:05;;;;;;;10.57;3.40;;;25.50;91.30;;;;;;6250380;22;20007;-82
2023/06/10 11:51:36;;;;;;;9.95;3.30;;;25.50;87.70;;;;;;6223805;22;20012;-81
2023/06/10 11:54:03;;;;;;;7.13;2.88;;;25.50;89.40;;;;;;6249220;22;20388;-82
2023/06/10 11:56:30;;;;;;;8.80;3.28;;;25.70;89.80;;;;;;6250892;22;20038;-81
2023/06/10 11:58:58;;;;;;;8.70;3.17;;;25.70;86.20;;;;;;6223231;22;20020;-81
2023/06/10 12:01:26;;;;;;;7.32;3.08;;;25.70;83.40;;;;;;6250931;22;20098;-81
2023/06/10 12:04:08;;;;;;;6.60;2.97;;;25.70;87.60;;;;;;6223443;22;20022;-81
2023/06/10 12:06:50;;;;;;;7.85;3.65;;;25.70;85.30;;;;;;6225237;22;20012;-80
2023/06/10 12:09:23;;;;;;;7.00;3.13;;;25.60;85.20;;;;;;6225451;22;20331;-79
2023/06/10 12:11:54;;;;;;;9.27;3.58;;;25.60;89.60;;;;;;6302366;22;20095;-81
2023/06/10 12:14:57;;;;;;;7.00;3.42;;;25.70;91.40;;;;;;6276601;22;20011;-81
2023/06/10 12:17:36;;;;;;;8.57;3.78;;;25.70;87.50;;;;;;6224934;22;20405;-81
2023/06/10 12:20:05;;;;;;;9.45;3.40;;;25.70;90.90;;;;;;6223300;22;20023;-82
2023/06/10 12:22:44;;;;;;;7.75;3.38;;;25.60;91.20;;;;;;6302199;22;20011;-82
2023/06/10 12:25:11;;;;;;;8.27;3.35;;;25.70;92.80;;;;;;6248462;22;20016;-82
2023/06/10 12:27:40;;;;;;;7.95;3.22;;;25.60;85.60;;;;;;6301919;22;20012;-80
2023/06/10 12:30:06;;;;;;;10.32;3.70;;;25.60;91.20;;;;;;6223442;22;20034;-81
2023/06/10 12:32:45;;;;;;;11.32;3.60;;;25.70;93.40;;;;;;6302068;22;20007;-81
2023/06/10 12:35:13;;;;;;;8.25;4.07;;;25.70;92.10;;;;;;6302197;22;20008;-81
2023/06/10 12:37:39;;;;;;;10.43;3.55;;;25.70;88.20;;;;;;6225407;22;20058;-82
2023/06/10 12:40:06;;;;;;;7.63;3.35;;;25.60;89.00;;;;;;6224001;22;20011;-81
2023/06/10 12:42:35;;;;;;;6.20;3.10;;;25.60;87.90;;;;;;6224457;22;20008;-80